createdAt,value
2018-04-14T00:01:17.331Z,9.60
2018-04-14T00:03:44.897Z,9.58
2018-04-14T00:06:13.113Z,9.47
2018-04-14T00:08:40.653Z,9.42
2018-04-14T00:11:08.209Z,9.37
2018-04-14T00:13:35.803Z,9.30
2018-04-14T00:16:03.396Z,9.30
2018-04-14T00:18:30.947Z,9.33
2018-04-14T00:20:59.064Z,9.29
2018-04-14T00:23:26.615Z,9.26
2018-04-14T00:25:54.413Z,9.19
2018-04-14T00:28:21.985Z,9.18
2018-04-14T00:30:49.534Z,9.17
2018-04-14T00:33:17.235Z,9.16
2018-04-14T00:35:45.014Z,9.13
2018-04-14T00:38:12.995Z,9.16
2018-04-14T00:40:40.565Z,9.34
2018-04-14T00:43:08.101Z,9.22
2018-04-14T00:45:35.687Z,9.24
2018-04-14T00:48:03.392Z,9.26
2018-04-14T00:50:30.994Z,9.25
2018-04-14T00:53:10.312Z,9.17
2018-04-14T00:55:38.028Z,9.19
2018-04-14T00:58:05.585Z,9.24
2018-04-14T01:00:33.134Z,9.24
2018-04-14T01:03:00.759Z,9.28
2018-04-14T01:05:28.316Z,9.21
2018-04-14T01:07:55.857Z,9.31
2018-04-14T01:10:23.507Z,9.20
2018-04-14T01:12:51.054Z,9.20
2018-04-14T01:15:18.724Z,9.19
2018-04-14T01:17:46.458Z,9.25
2018-04-14T01:20:14.025Z,9.34
2018-04-14T01:22:41.758Z,9.27
2018-04-14T01:25:09.585Z,9.15
2018-04-14T01:27:37.132Z,9.31
2018-04-14T01:30:05.057Z,9.21
2018-04-14T01:32:32.610Z,9.27
2018-04-14T01:35:00.306Z,9.23
2018-04-14T01:37:27.965Z,9.09
2018-04-14T01:39:55.531Z,9.12
2018-04-14T01:42:23.131Z,9.00
2018-04-14T01:44:50.683Z,9.11
2018-04-14T01:47:18.248Z,9.05
2018-04-14T01:49:46.166Z,9.13
2018-04-14T01:52:13.709Z,9.09
2018-04-14T01:54:41.249Z,9.03
2018-04-14T01:57:08.970Z,8.98
2018-04-14T01:59:36.527Z,8.84
2018-04-14T02:02:04.159Z,8.73
2018-04-14T02:04:31.987Z,8.64
2018-04-14T02:06:59.548Z,8.74
2018-04-14T02:09:27.166Z,8.69
2018-04-14T02:11:54.718Z,8.66
2018-04-14T02:14:22.274Z,8.64
2018-04-14T02:16:50.395Z,8.58
2018-04-14T02:19:17.937Z,8.64
2018-04-14T02:21:45.612Z,8.57
2018-04-14T02:24:13.209Z,8.55
2018-04-14T02:26:40.963Z,8.66
2018-04-14T02:29:08.740Z,8.64
2018-04-14T02:31:36.469Z,8.46
2018-04-14T02:34:04.025Z,8.55
2018-04-14T02:36:31.583Z,8.51
2018-04-14T02:38:59.357Z,8.61
2018-04-14T02:41:26.913Z,8.62
2018-04-14T02:43:54.692Z,8.69
2018-04-14T02:46:22.444Z,8.57
2018-04-14T02:48:50.144Z,8.60
2018-04-14T02:51:17.814Z,8.55
2018-04-14T02:53:45.670Z,8.61
2018-04-14T02:56:13.228Z,8.54
2018-04-14T02:58:40.789Z,8.59
2018-04-14T03:01:08.750Z,8.71
2018-04-14T03:03:36.487Z,8.58
2018-04-14T03:06:04.043Z,8.46
2018-04-14T03:08:32.082Z,8.50
2018-04-14T03:10:59.836Z,8.40
2018-04-14T03:13:27.377Z,8.39
2018-04-14T03:15:55.088Z,8.48
2018-04-14T03:18:22.654Z,8.44
2018-04-14T03:20:50.849Z,8.41
2018-04-14T03:23:18.524Z,8.37
2018-04-14T03:25:46.093Z,8.32
2018-04-14T03:28:13.670Z,8.26
2018-04-14T03:30:41.205Z,8.23
2018-04-14T03:33:08.933Z,8.15
2018-04-14T03:35:36.478Z,8.19
2018-04-14T03:38:04.022Z,8.17
2018-04-14T03:40:31.590Z,8.24
2018-04-14T03:42:59.419Z,8.17
2018-04-14T03:45:27.130Z,8.19
2018-04-14T03:47:54.870Z,8.10
2018-04-14T03:50:22.418Z,8.01
2018-04-14T03:52:49.986Z,8.06
2018-04-14T03:55:17.727Z,8.12
2018-04-14T03:57:45.472Z,8.11
2018-04-14T04:00:13.016Z,8.09
2018-04-14T04:02:40.586Z,8.30
2018-04-14T04:05:08.166Z,8.17
2018-04-14T04:07:35.746Z,8.11
2018-04-14T04:10:03.304Z,7.99
2018-04-14T04:12:30.894Z,7.98
2018-04-14T04:14:58.643Z,8.00
2018-04-14T04:17:26.185Z,7.89
2018-04-14T04:20:05.815Z,7.93
2018-04-14T04:22:45.476Z,7.87
2018-04-14T04:25:24.652Z,7.77
2018-04-14T04:27:52.429Z,7.88
2018-04-14T04:30:19.973Z,7.74
2018-04-14T04:32:47.646Z,7.65
2018-04-14T04:35:15.251Z,7.65
2018-04-14T04:37:42.793Z,7.69
2018-04-14T04:40:10.337Z,7.63
2018-04-14T04:42:38.248Z,7.60
2018-04-14T04:45:05.800Z,7.57
2018-04-14T04:47:33.341Z,7.57
2018-04-14T04:50:00.922Z,7.70
2018-04-14T04:52:28.494Z,7.56
2018-04-14T04:54:56.306Z,7.47
2018-04-14T04:57:23.991Z,7.53
2018-04-14T04:59:51.973Z,7.69
2018-04-14T05:02:19.530Z,7.68
2018-04-14T05:04:47.091Z,7.66
2018-04-14T05:07:14.794Z,7.77
2018-04-14T05:09:42.534Z,7.85
2018-04-14T05:12:10.112Z,8.15
2018-04-14T05:14:37.672Z,8.00
2018-04-14T05:17:05.556Z,7.83
2018-04-14T05:19:33.110Z,7.82
2018-04-14T05:22:00.849Z,7.93
2018-04-14T05:24:28.462Z,7.87
2018-04-14T05:26:56.002Z,7.97
2018-04-14T05:29:23.570Z,7.86
2018-04-14T05:31:51.147Z,7.81
2018-04-14T05:34:18.689Z,7.82
2018-04-14T05:36:46.494Z,8.02
2018-04-14T05:39:14.061Z,8.05
2018-04-14T05:41:42.777Z,8.31
2018-04-14T05:44:10.541Z,8.07
2018-04-14T05:46:38.112Z,8.21
2018-04-14T05:49:05.814Z,8.21
2018-04-14T05:51:33.391Z,8.19
2018-04-14T05:54:00.947Z,8.21
2018-04-14T05:56:28.539Z,8.27
2018-04-14T05:58:56.137Z,8.49
2018-04-14T06:01:23.686Z,8.22
2018-04-14T06:03:51.239Z,8.22
2018-04-14T06:06:18.819Z,8.46
2018-04-14T06:08:46.369Z,8.40
2018-04-14T06:11:14.055Z,8.26
2018-04-14T06:13:41.597Z,8.39
2018-04-14T06:16:09.303Z,8.68
2018-04-14T06:18:37.077Z,8.62
2018-04-14T06:21:04.959Z,8.40
2018-04-14T06:23:32.525Z,8.41
2018-04-14T06:26:00.079Z,8.37
2018-04-14T06:28:28.025Z,8.39
2018-04-14T06:30:55.594Z,8.55
2018-04-14T06:33:23.159Z,8.66
2018-04-14T06:35:50.740Z,8.70
2018-04-14T06:38:18.485Z,8.55
2018-04-14T06:40:46.046Z,8.80
2018-04-14T06:43:13.835Z,8.73
2018-04-14T06:45:41.419Z,8.63
2018-04-14T06:48:09.002Z,8.53
2018-04-14T06:50:36.549Z,8.60
2018-04-14T06:53:04.250Z,8.61
2018-04-14T06:55:31.905Z,8.57
2018-04-14T06:57:59.449Z,8.53
2018-04-14T07:00:27.039Z,8.64
2018-04-14T07:02:54.596Z,8.86
2018-04-14T07:05:22.260Z,8.97
2018-04-14T07:07:49.821Z,9.07
2018-04-14T07:10:17.382Z,8.93
2018-04-14T07:12:45.121Z,8.77
2018-04-14T07:15:12.732Z,9.12
2018-04-14T07:17:40.276Z,8.90
2018-04-14T07:20:07.939Z,8.92
2018-04-14T07:22:35.551Z,9.01
2018-04-14T07:25:03.190Z,8.92
2018-04-14T07:27:30.742Z,9.06
2018-04-14T07:29:58.544Z,9.05
2018-04-14T07:32:26.129Z,9.00
2018-04-14T07:34:53.723Z,9.03
2018-04-14T07:37:21.308Z,9.10
2018-04-14T07:39:48.874Z,9.21
2018-04-14T07:42:16.444Z,9.27
2018-04-14T07:44:43.984Z,9.21
2018-04-14T07:47:11.581Z,9.27
2018-04-14T07:49:39.125Z,9.47
2018-04-14T07:52:06.800Z,9.24
2018-04-14T07:54:34.370Z,9.36
2018-04-14T07:57:01.918Z,9.39
2018-04-14T07:59:29.512Z,9.54
2018-04-14T08:01:57.231Z,9.44
2018-04-14T08:04:24.788Z,9.38
2018-04-14T08:06:52.343Z,9.46
2018-04-14T08:09:20.196Z,9.44
2018-04-14T08:11:48.011Z,9.51
2018-04-14T08:14:15.612Z,9.46
2018-04-14T08:16:43.388Z,9.49
2018-04-14T08:19:10.934Z,9.57
2018-04-14T08:21:38.709Z,9.83
2018-04-14T08:24:06.618Z,9.85
2018-04-14T08:26:34.175Z,9.89
2018-04-14T08:29:01.709Z,9.77
2018-04-14T08:31:29.286Z,9.81
2018-04-14T08:33:56.872Z,9.81
2018-04-14T08:36:24.417Z,9.86
2018-04-14T08:38:51.989Z,9.72
2018-04-14T08:41:19.809Z,9.94
2018-04-14T08:43:47.586Z,9.88
2018-04-14T08:46:15.134Z,9.73
2018-04-14T08:48:42.704Z,10.00
2018-04-14T08:51:10.270Z,10.24
2018-04-14T08:53:38.083Z,9.84
2018-04-14T08:56:05.655Z,9.70
2018-04-14T08:58:33.232Z,9.68
2018-04-14T09:01:00.927Z,9.81
2018-04-14T09:03:28.473Z,9.87
2018-04-14T09:05:56.028Z,10.10
2018-04-14T09:08:23.597Z,10.14
2018-04-14T09:10:51.145Z,10.31
2018-04-14T09:13:18.979Z,10.21
2018-04-14T09:15:46.554Z,10.22
2018-04-14T09:18:14.169Z,10.14
2018-04-14T09:20:42.001Z,10.42
2018-04-14T09:23:09.678Z,10.24
2018-04-14T09:25:37.453Z,10.54
2018-04-14T09:28:05.037Z,10.55
2018-04-14T09:30:32.657Z,10.26
2018-04-14T09:33:00.206Z,10.15
2018-04-14T09:35:27.945Z,10.27
2018-04-14T09:37:55.923Z,10.52
2018-04-14T09:40:23.518Z,10.35
2018-04-14T09:42:51.187Z,10.43
2018-04-14T09:45:18.915Z,10.24
2018-04-14T09:47:46.476Z,10.19
2018-04-14T09:50:14.072Z,10.25
2018-04-14T09:52:41.803Z,10.35
2018-04-14T09:55:09.343Z,10.52
2018-04-14T09:57:36.882Z,10.45
2018-04-14T10:00:04.463Z,10.69
2018-04-14T10:02:37.577Z,10.54
2018-04-14T10:05:05.298Z,10.61
2018-04-14T10:07:32.899Z,10.92
2018-04-14T10:10:00.461Z,11.14
2018-04-14T10:12:28.365Z,11.72
2018-04-14T10:14:56.090Z,11.63
2018-04-14T10:17:23.635Z,11.50
2018-04-14T10:19:51.221Z,12.11
2018-04-14T10:22:18.752Z,12.01
2018-04-14T10:24:46.484Z,13.45
2018-04-14T10:27:14.259Z,13.46
2018-04-14T10:29:41.806Z,14.00
2018-04-14T10:32:09.509Z,13.65
2018-04-14T10:34:37.070Z,14.16
2018-04-14T10:37:04.629Z,13.11
2018-04-14T10:39:32.160Z,13.36
2018-04-14T10:41:59.948Z,13.16
2018-04-14T10:44:27.574Z,13.08
2018-04-14T10:46:55.113Z,13.04
2018-04-14T10:49:22.684Z,12.87
2018-04-14T10:51:50.247Z,12.55
2018-04-14T10:54:17.854Z,12.49
2018-04-14T10:56:45.412Z,12.78
2018-04-14T10:59:12.963Z,12.11
2018-04-14T11:01:40.927Z,12.22
2018-04-14T11:04:08.577Z,12.13
2018-04-14T11:06:36.145Z,11.96
2018-04-14T11:09:03.756Z,11.84
2018-04-14T11:11:31.310Z,11.80
2018-04-14T11:13:58.874Z,12.69
2018-04-14T11:16:26.418Z,12.20
2018-04-14T11:18:54.428Z,13.05
2018-04-14T11:21:21.973Z,13.19
2018-04-14T11:23:49.782Z,12.50
2018-04-14T11:26:17.342Z,12.66
2018-04-14T11:28:44.902Z,12.55
2018-04-14T11:31:12.849Z,12.27
2018-04-14T11:33:40.398Z,12.33
2018-04-14T11:36:08.184Z,11.97
2018-04-14T11:38:35.723Z,12.26
2018-04-14T11:41:03.398Z,12.74
2018-04-14T11:43:31.086Z,12.11
2018-04-14T11:45:58.648Z,12.38
2018-04-14T11:48:26.190Z,12.33
2018-04-14T11:50:53.833Z,12.56
2018-04-14T11:53:21.362Z,13.09
2018-04-14T11:55:49.110Z,13.47
2018-04-14T11:58:16.687Z,14.14
2018-04-14T12:00:44.505Z,12.60
2018-04-14T12:03:12.280Z,13.14
2018-04-14T12:05:40.059Z,13.22
2018-04-14T12:08:07.640Z,12.76
2018-04-14T12:10:35.190Z,12.63
2018-04-14T12:13:03.394Z,12.60
2018-04-14T12:15:31.064Z,12.53
2018-04-14T12:17:58.745Z,12.48
2018-04-14T12:20:26.359Z,12.66
2018-04-14T12:22:53.931Z,12.70
2018-04-14T12:25:21.669Z,13.07
2018-04-14T12:27:49.471Z,13.22
2018-04-14T12:30:17.028Z,13.07
2018-04-14T12:32:44.571Z,12.88
2018-04-14T12:35:12.138Z,13.23
2018-04-14T12:37:39.689Z,13.40
2018-04-14T12:40:07.249Z,13.47
2018-04-14T12:42:34.816Z,13.22
2018-04-14T12:45:02.454Z,12.79
2018-04-14T12:47:30.007Z,12.62
2018-04-14T12:49:57.613Z,12.64
2018-04-14T12:52:25.192Z,12.93
2018-04-14T12:54:52.758Z,12.51
2018-04-14T12:57:20.421Z,13.33
2018-04-14T12:59:47.979Z,14.01
2018-04-14T13:02:15.676Z,13.94
2018-04-14T13:04:43.612Z,13.66
2018-04-14T13:07:11.180Z,13.56
2018-04-14T13:09:38.731Z,12.91
2018-04-14T13:12:06.481Z,12.56
2018-04-14T13:14:34.078Z,12.95
2018-04-14T13:17:01.732Z,13.03
2018-04-14T13:19:29.312Z,12.86
2018-04-14T13:21:56.868Z,12.91
2018-04-14T13:24:24.430Z,13.32
2018-04-14T13:26:52.002Z,12.96
2018-04-14T13:29:19.542Z,13.15
2018-04-14T13:31:48.630Z,13.50
2018-04-14T13:34:16.203Z,14.01
2018-04-14T13:36:43.755Z,13.63
2018-04-14T13:39:11.371Z,14.14
2018-04-14T13:41:38.909Z,14.19
2018-04-14T13:44:06.462Z,13.67
2018-04-14T13:46:34.189Z,13.75
2018-04-14T13:49:01.795Z,13.30
2018-04-14T13:51:29.354Z,12.87
2018-04-14T13:53:56.907Z,13.31
2018-04-14T13:56:24.486Z,13.33
2018-04-14T13:58:52.036Z,13.45
2018-04-14T14:01:19.787Z,13.85
2018-04-14T14:03:47.459Z,13.41
2018-04-14T14:06:15.042Z,13.81
2018-04-14T14:46:51.184Z,14.38
2018-04-14T14:49:18.780Z,14.52
2018-04-14T14:51:46.321Z,15.48
2018-04-14T14:54:14.047Z,14.37
2018-04-14T14:56:41.669Z,14.13
2018-04-14T14:59:09.294Z,14.52
2018-04-14T15:01:36.823Z,14.72
2018-04-14T15:04:04.406Z,15.71
2018-04-14T15:06:32.222Z,15.02
2018-04-14T15:08:59.761Z,14.82
2018-04-14T15:11:27.572Z,14.82
2018-04-14T15:13:55.179Z,14.21
2018-04-14T15:16:22.739Z,14.38
2018-04-14T15:18:50.278Z,14.52
2018-04-14T15:21:17.965Z,14.94
2018-04-14T15:23:45.515Z,14.79
2018-04-14T15:26:13.317Z,13.93
2018-04-14T15:28:41.313Z,14.90
2018-04-14T15:31:08.859Z,15.50
2018-04-14T15:33:36.400Z,14.91
2018-04-14T15:36:04.000Z,15.81
2018-04-14T15:38:31.719Z,15.23
2018-04-14T15:40:59.258Z,15.68
2018-04-14T15:43:26.807Z,14.88
2018-04-14T15:45:54.618Z,15.32
2018-04-14T15:48:22.169Z,15.31
2018-04-14T15:50:49.726Z,14.73
2018-04-14T15:53:17.850Z,14.84
2018-04-14T15:55:45.384Z,15.48
2018-04-14T15:58:12.926Z,14.95
2018-04-14T16:00:40.494Z,15.14
2018-04-14T16:03:08.054Z,14.53
2018-04-14T16:05:35.738Z,15.16
2018-04-14T16:08:03.492Z,15.31
2018-04-14T16:10:31.273Z,14.39
2018-04-14T16:12:58.963Z,14.74
2018-04-14T16:15:26.577Z,14.63
2018-04-14T16:17:54.125Z,14.97
2018-04-14T16:20:21.743Z,14.59
2018-04-14T16:22:49.290Z,14.26
2018-04-14T16:25:16.849Z,14.45
2018-04-14T16:27:44.745Z,14.82
2018-04-14T16:30:12.290Z,15.66
2018-04-14T16:32:40.048Z,14.70
2018-04-14T16:35:07.687Z,14.93
2018-04-14T16:37:35.235Z,14.15
2018-04-14T16:40:02.809Z,14.37
2018-04-14T16:42:30.445Z,15.07
2018-04-14T16:44:58.183Z,15.23
2018-04-14T16:47:25.736Z,15.16
2018-04-14T16:49:53.417Z,14.99
2018-04-14T16:52:20.961Z,14.79
2018-04-14T16:54:48.494Z,14.59
2018-04-14T16:57:16.073Z,14.51
2018-04-14T16:59:43.626Z,14.45
2018-04-14T17:02:11.193Z,14.45
2018-04-14T17:04:38.738Z,14.59
2018-04-14T17:07:06.484Z,14.58
2018-04-14T17:09:34.237Z,14.59
2018-04-14T17:12:01.930Z,14.58
2018-04-14T17:14:29.474Z,14.32
2018-04-14T17:16:57.398Z,14.65
2018-04-14T17:19:25.064Z,14.48
2018-04-14T17:21:52.606Z,14.50
2018-04-14T17:24:20.416Z,14.40
2018-04-14T17:26:47.953Z,14.28
2018-04-14T17:29:15.518Z,14.29
2018-04-14T17:31:43.052Z,14.09
2018-04-14T17:34:10.631Z,14.06
2018-04-14T17:36:38.387Z,14.14
2018-04-14T17:39:06.893Z,14.13
2018-04-14T17:41:34.447Z,13.93
2018-04-14T17:44:02.233Z,13.75
2018-04-14T17:46:29.775Z,13.70
2018-04-14T17:48:57.358Z,13.58
2018-04-14T17:51:24.927Z,13.63
2018-04-14T17:53:52.498Z,13.47
2018-04-14T17:56:20.324Z,13.26
2018-04-14T17:58:47.898Z,13.08
2018-04-14T18:01:15.479Z,13.03
2018-04-14T18:03:43.434Z,12.94
2018-04-14T18:06:10.983Z,12.61
2018-04-14T18:08:38.575Z,12.68
2018-04-14T18:11:06.164Z,12.80
2018-04-14T18:13:33.826Z,12.58
2018-04-14T18:16:01.368Z,12.56
2018-04-14T18:18:28.930Z,12.36
2018-04-14T18:20:56.488Z,12.16
2018-04-14T18:23:24.045Z,12.03
2018-04-14T18:25:51.590Z,11.73
2018-04-14T18:28:19.266Z,11.61
2018-04-14T18:30:46.815Z,11.66
2018-04-14T18:33:14.756Z,11.76
2018-04-14T18:35:42.498Z,11.35
2018-04-14T18:38:10.042Z,11.04
2018-04-14T18:40:37.713Z,10.79
2018-04-14T18:43:05.262Z,10.61
2018-04-14T18:45:32.900Z,10.48
2018-04-14T18:48:00.457Z,10.44
2018-04-14T18:50:28.007Z,10.36
2018-04-14T18:52:55.560Z,10.31
2018-04-14T18:55:23.493Z,10.27
2018-04-14T18:57:51.025Z,10.56
2018-04-14T19:00:18.575Z,10.76
2018-04-14T19:02:46.177Z,10.83
2018-04-14T19:05:13.940Z,10.57
2018-04-14T19:07:41.563Z,10.47
2018-04-14T19:10:09.205Z,10.45
2018-04-14T19:12:36.774Z,10.18
2018-04-14T19:15:04.361Z,10.01
2018-04-14T19:17:31.937Z,10.09
2018-04-14T19:19:59.691Z,9.95
2018-04-14T19:22:27.390Z,9.85
2018-04-14T19:24:55.150Z,9.90
2018-04-14T19:27:22.916Z,10.00
2018-04-14T19:29:50.454Z,9.93
2018-04-14T19:32:17.995Z,9.97
2018-04-14T19:34:45.586Z,9.92
2018-04-14T19:37:13.368Z,9.79
2018-04-14T19:39:40.935Z,9.65
2018-04-14T19:42:08.525Z,9.63
2018-04-14T19:44:36.068Z,9.55
2018-04-14T19:47:03.597Z,9.57
2018-04-14T19:49:31.345Z,9.59
2018-04-14T19:51:58.885Z,9.53
2018-04-14T19:54:26.468Z,9.47
2018-04-14T19:56:54.177Z,9.46
2018-04-14T19:59:21.718Z,9.53
2018-04-14T20:01:49.262Z,9.67
2018-04-14T20:04:16.830Z,9.57
2018-04-14T20:06:44.631Z,9.65
2018-04-14T20:09:12.435Z,9.78
2018-04-14T20:11:40.030Z,9.95
2018-04-14T20:14:07.618Z,9.76
2018-04-14T20:16:35.160Z,9.62
2018-04-14T20:19:02.897Z,9.47
2018-04-14T20:21:30.433Z,9.42
2018-04-14T20:23:57.985Z,9.39
2018-04-14T20:26:25.555Z,9.40
2018-04-14T20:28:53.113Z,9.38
2018-04-14T20:31:20.815Z,9.34
2018-04-14T20:33:48.347Z,9.29
2018-04-14T20:36:15.887Z,9.61
2018-04-14T20:38:43.450Z,9.69
2018-04-14T20:41:11.048Z,9.63
2018-04-14T20:43:38.785Z,9.41
2018-04-14T20:46:06.321Z,9.28
2018-04-14T20:48:33.862Z,9.14
2018-04-14T20:51:01.467Z,9.04
2018-04-14T20:53:29.265Z,9.01
2018-04-14T20:55:56.810Z,8.94
2018-04-14T20:58:24.376Z,9.10
2018-04-14T21:00:51.936Z,9.19
2018-04-14T21:03:19.506Z,9.01
2018-04-14T21:05:47.042Z,8.88
2018-04-14T21:08:14.965Z,8.71
2018-04-14T21:10:42.509Z,8.58
2018-04-14T21:13:10.153Z,8.55
2018-04-14T21:15:37.850Z,8.44
2018-04-14T21:18:05.393Z,8.45
2018-04-14T21:20:32.934Z,8.61
2018-04-14T21:23:00.524Z,9.01
2018-04-14T21:25:28.071Z,8.95
2018-04-14T21:27:55.688Z,8.85
2018-04-14T21:30:23.234Z,8.91
2018-04-14T21:32:50.778Z,8.67
2018-04-14T21:35:18.515Z,8.57
2018-04-14T21:37:46.086Z,8.78
2018-04-14T21:40:14.480Z,8.58
2018-04-14T21:42:42.085Z,8.46
2018-04-14T21:45:09.804Z,8.28
2018-04-14T21:47:37.359Z,8.26
2018-04-14T21:50:04.944Z,8.14
2018-04-14T21:52:32.540Z,8.05
2018-04-14T21:55:00.227Z,8.12
2018-04-14T21:57:27.765Z,8.12
2018-04-14T21:59:55.356Z,8.14
2018-04-14T22:02:22.911Z,8.09
2018-04-14T22:04:50.526Z,8.34
2018-04-14T22:07:18.328Z,8.16
2018-04-14T22:09:45.867Z,8.12
2018-04-14T22:12:13.417Z,8.41
2018-04-14T22:14:40.987Z,8.69
2018-04-14T22:17:08.543Z,8.41
2018-04-14T22:19:36.133Z,8.55
2018-04-14T22:22:03.946Z,8.46
2018-04-14T22:24:31.485Z,8.53
2018-04-14T22:26:59.036Z,8.42
2018-04-14T22:29:26.605Z,8.57
2018-04-14T22:31:54.248Z,8.51
2018-04-14T22:34:22.090Z,8.70
2018-04-14T22:36:49.653Z,8.83
2018-04-14T22:39:17.197Z,8.67
2018-04-14T22:41:45.158Z,8.83
2018-04-14T22:44:12.722Z,8.86
2018-04-14T22:46:40.451Z,8.75
2018-04-14T22:49:08.280Z,8.92
2018-04-14T22:51:35.840Z,9.21
2018-04-14T22:54:03.467Z,9.31
2018-04-14T22:56:31.002Z,9.29
2018-04-14T22:58:58.541Z,9.41
2018-04-14T23:01:26.175Z,9.17
2018-04-14T23:03:53.735Z,9.02
2018-04-14T23:06:21.290Z,9.35
2018-04-14T23:08:48.894Z,9.31
2018-04-14T23:11:16.753Z,9.36
2018-04-14T23:13:44.541Z,9.20
2018-04-14T23:16:12.089Z,9.24
2018-04-14T23:18:39.776Z,9.32
2018-04-14T23:21:07.314Z,9.26
2018-04-14T23:23:34.882Z,9.16
2018-04-14T23:26:02.430Z,9.35
2018-04-14T23:28:30.270Z,9.21
2018-04-14T23:30:57.925Z,9.20
2018-04-14T23:33:25.610Z,9.07
2018-04-14T23:35:53.148Z,9.15
2018-04-14T23:38:20.867Z,9.45
2018-04-14T23:40:48.420Z,9.50
2018-04-14T23:43:16.221Z,9.38
2018-04-14T23:45:43.821Z,9.16
2018-04-14T23:48:11.353Z,9.45
2018-04-14T23:50:39.144Z,9.32
2018-04-14T23:53:06.710Z,9.49
2018-04-14T23:55:34.400Z,9.36
2018-04-14T23:58:02.077Z,9.55
